Time;durP1;ratioP1;P1;durP2;ratioP2;P2;SDS_P1;SDS_P2;PMS_P1;PMS_P2;Temp;Humidity;BMP_temperature;BMP_pressure;BME280_temperature;BME280_humidity;BME280_pressure;Samples;Min_cycle;Max_cycle;Signal;HPM_P1;HPM_P2
2022/10/23 00:00:27;;;;;;;6.03;3.20;;;;;;;;;;5051303;28;20171;-87
2022/10/23 00:03:31;;;;;;;3.67;3.20;;;;;;;;;;5062823;28;20179;-87
2022/10/23 00:06:35;;;;;;;5.20;3.33;;;;;;;;;;5039771;28;20219;-87
2022/10/23 00:09:39;;;;;;;6.43;3.50;;;;;;;;;;5039874;28;20175;-87
2022/10/23 00:12:44;;;;;;;6.07;2.70;;;;;;;;;;5050974;28;20175;-87
2022/10/23 00:15:48;;;;;;;5.80;2.87;;;;;;;;;;5050442;28;20235;-87
2022/10/23 00:18:52;;;;;;;4.97;2.80;;;;;;;;;;5062748;28;20179;-87
2022/10/23 00:21:56;;;;;;;2.87;2.60;;;;;;;;;;5039713;28;20183;-87
2022/10/23 00:25:01;;;;;;;3.93;2.40;;;;;;;;;;5050520;28;20179;-87
2022/10/23 00:28:05;;;;;;;4.73;2.80;;;;;;;;;;5051011;28;20630;-87
2022/10/23 00:31:09;;;;;;;4.27;2.80;;;;;;;;;;5039236;28;20199;-87
2022/10/23 00:34:14;;;;;;;6.90;3.30;;;;;;;;;;5039188;28;20196;-87
2022/10/23 00:37:18;;;;;;;6.00;2.87;;;;;;;;;;5050606;28;20218;-87
2022/10/23 00:40:22;;;;;;;10.27;2.97;;;;;;;;;;5050284;28;20176;-87
2022/10/23 00:43:29;;;;;;;6.57;2.70;;;;;;;;;;5050463;28;20179;-87
2022/10/23 00:46:35;;;;;;;4.90;2.87;;;;;;;;;;5050100;28;20211;-87
2022/10/23 00:49:39;;;;;;;11.23;3.33;;;;;;;;;;5050504;28;20184;-87
2022/10/23 00:52:47;;;;;;;5.23;3.07;;;;;;;;;;5039322;28;20183;-88
2022/10/23 00:55:53;;;;;;;5.77;2.50;;;;;;;;;;5038873;28;20223;-87
2022/10/23 00:58:57;;;;;;;4.00;2.60;;;;;;;;;;5038673;28;20199;-87
2022/10/23 01:02:02;;;;;;;7.87;2.93;;;;;;;;;;5038851;28;20183;-87
2022/10/23 01:05:07;;;;;;;8.30;2.90;;;;;;;;;;5050041;28;20199;-87
2022/10/23 01:08:57;;;;;;;3.00;2.27;;;;;;;;;;5050019;28;20192;-87
2022/10/23 01:12:07;;;;;;;6.60;3.40;;;;;;;;;;5051040;28;20175;-86
2022/10/23 01:15:29;;;;;;;7.43;2.77;;;;;;;;;;5050982;28;20175;-84
2022/10/23 01:19:27;;;;;;;5.10;3.23;;;;;;;;;;5051698;28;20175;-86
2022/10/23 01:23:03;;;;;;;5.87;2.80;;;;;;;;;;5028244;28;20203;-86
2022/10/23 01:26:23;;;;;;;6.07;2.60;;;;;;;;;;5003744;28;20211;-86
2022/10/23 01:29:35;;;;;;;6.13;2.60;;;;;;;;;;5050943;28;20191;-86
2022/10/23 01:32:59;;;;;;;4.67;2.80;;;;;;;;;;5039886;28;20512;-87
2022/10/23 01:36:09;;;;;;;6.07;2.63;;;;;;;;;;5040154;28;20223;-86
2022/10/23 01:39:34;;;;;;;4.63;2.50;;;;;;;;;;5051378;28;20176;-86
2022/10/23 01:42:45;;;;;;;5.93;3.27;;;;;;;;;;5040708;28;20187;-85
2022/10/23 01:45:55;;;;;;;3.53;2.40;;;;;;;;;;5039836;28;20207;-86
2022/10/23 01:49:01;;;;;;;3.07;2.77;;;;;;;;;;5051240;28;20179;-86
2022/10/23 01:52:09;;;;;;;3.30;2.63;;;;;;;;;;5040206;28;20622;-86
2022/10/23 01:55:15;;;;;;;4.87;2.60;;;;;;;;;;5055773;28;20195;-86
2022/10/23 01:58:21;;;;;;;3.80;2.20;;;;;;;;;;5059697;28;20183;-86
2022/10/23 02:01:29;;;;;;;3.17;2.40;;;;;;;;;;5082386;28;20175;-86
2022/10/23 02:04:41;;;;;;;4.43;2.40;;;;;;;;;;5059129;28;20183;-87
2022/10/23 02:07:45;;;;;;;2.87;2.30;;;;;;;;;;5058795;28;20172;-86
2022/10/23 02:11:12;;;;;;;2.73;2.37;;;;;;;;;;5060109;28;20179;-86
2022/10/23 02:14:32;;;;;;;3.60;2.10;;;;;;;;;;5063028;28;20183;-86
2022/10/23 02:18:12;;;;;;;5.37;2.23;;;;;;;;;;5074335;28;20665;-85
2022/10/23 02:21:25;;;;;;;2.53;2.10;;;;;;;;;;5014046;28;20649;-86
2022/10/23 02:24:49;;;;;;;3.83;1.97;;;;;;;;;;5073933;28;20510;-86
2022/10/23 02:27:59;;;;;;;4.73;2.23;;;;;;;;;;5063095;28;20175;-86
2022/10/23 02:31:16;;;;;;;4.30;1.97;;;;;;;;;;5063648;28;20191;-86
2022/10/23 02:34:21;;;;;;;4.97;2.20;;;;;;;;;;5062223;28;20626;-86
2022/10/23 02:37:25;;;;;;;8.10;2.07;;;;;;;;;;5072973;28;20222;-86
2022/10/23 02:40:38;;;;;;;4.97;2.10;;;;;;;;;;5073743;28;20187;-86
2022/10/23 02:43:56;;;;;;;2.83;1.80;;;;;;;;;;5062173;28;20191;-86
2022/10/23 02:47:34;;;;;;;3.43;2.00;;;;;;;;;;5062074;28;20673;-86
2022/10/23 02:50:59;;;;;;;6.97;2.03;;;;;;;;;;5062090;28;20184;-86
2022/10/23 02:54:15;;;;;;;4.03;2.07;;;;;;;;;;5062730;28;20526;-86
2022/10/23 02:57:32;;;;;;;2.43;2.20;;;;;;;;;;5062057;28;20218;-86
2022/10/23 03:00:41;;;;;;;6.83;2.53;;;;;;;;;;5062307;28;20179;-86
2022/10/23 03:03:55;;;;;;;6.10;2.20;;;;;;;;;;5062018;28;20183;-86
2022/10/23 03:07:00;;;;;;;5.27;2.50;;;;;;;;;;5061837;28;20226;-86
2022/10/23 03:10:05;;;;;;;7.90;2.30;;;;;;;;;;5073077;28;20199;-86
2022/10/23 03:13:10;;;;;;;2.37;1.83;;;;;;;;;;5062010;28;20187;-86
2022/10/23 03:16:21;;;;;;;6.43;2.47;;;;;;;;;;5084217;28;20226;-86
2022/10/23 03:19:29;;;;;;;3.50;2.07;;;;;;;;;;5062049;28;20179;-86
2022/10/23 03:22:33;;;;;;;5.77;2.20;;;;;;;;;;5061373;28;20198;-86
2022/10/23 03:25:38;;;;;;;4.40;2.10;;;;;;;;;;5072381;28;20210;-86
2022/10/23 03:28:42;;;;;;;5.17;1.97;;;;;;;;;;5062248;28;20174;-86
2022/10/23 03:31:45;;;;;;;7.07;2.30;;;;;;;;;;5061309;28;20530;-86
2022/10/23 03:34:50;;;;;;;6.20;2.20;;;;;;;;;;5072768;28;20183;-86
2022/10/23 03:37:54;;;;;;;3.20;2.30;;;;;;;;;;5072073;28;20218;-85
2022/10/23 03:41:02;;;;;;;3.50;2.07;;;;;;;;;;5061273;28;20198;-86
2022/10/23 03:44:07;;;;;;;8.73;2.80;;;;;;;;;;5060834;28;20171;-86
2022/10/23 03:47:11;;;;;;;7.97;2.77;;;;;;;;;;5060462;28;20207;-86
2022/10/23 03:50:15;;;;;;;9.73;2.60;;;;;;;;;;5061559;28;20175;-85
2022/10/23 03:53:19;;;;;;;7.17;2.50;;;;;;;;;;5061160;28;20170;-86
2022/10/23 03:56:23;;;;;;;3.93;2.77;;;;;;;;;;5071966;28;20218;-86
2022/10/23 03:59:27;;;;;;;5.40;2.27;;;;;;;;;;5084143;28;20187;-86
2022/10/23 04:02:31;;;;;;;6.40;2.90;;;;;;;;;;5060651;28;20174;-86
2022/10/23 04:05:35;;;;;;;3.23;2.43;;;;;;;;;;5071598;28;20226;-86
2022/10/23 04:08:44;;;;;;;3.20;2.77;;;;;;;;;;5088702;23;20223;-87
2022/10/23 04:11:54;;;;;;;6.93;2.97;;;;;;;;;;5051930;28;20171;-87
2022/10/23 04:14:58;;;;;;;4.13;3.03;;;;;;;;;;5062464;28;20534;-87
2022/10/23 04:18:03;;;;;;;5.73;3.80;;;;;;;;;;5050856;28;20605;-88
2022/10/23 04:21:09;;;;;;;5.30;4.20;;;;;;;;;;5051374;28;20172;-87
2022/10/23 04:24:14;;;;;;;5.00;3.43;;;;;;;;;;5062187;28;20172;-87
2022/10/23 04:27:18;;;;;;;6.87;3.93;;;;;;;;;;5050890;28;20171;-88
2022/10/23 04:30:22;;;;;;;5.93;4.10;;;;;;;;;;5050639;28;20183;-87
2022/10/23 04:33:26;;;;;;;6.47;4.17;;;;;;;;;;5050160;28;20172;-87
2022/10/23 04:36:31;;;;;;;5.57;4.90;;;;;;;;;;5073398;28;20545;-87
2022/10/23 04:39:41;;;;;;;5.93;5.13;;;;;;;;;;5061412;28;20211;-87
2022/10/23 04:42:50;;;;;;;7.70;6.13;;;;;;;;;;5051304;28;20187;-87
2022/10/23 04:45:54;;;;;;;9.57;5.50;;;;;;;;;;5050464;28;20199;-87
2022/10/23 04:48:58;;;;;;;8.47;5.40;;;;;;;;;;5050512;28;20219;-87
2022/10/23 04:52:23;;;;;;;6.93;5.20;;;;;;;;;;5053328;28;20180;-87
2022/10/23 04:55:58;;;;;;;5.97;5.37;;;;;;;;;;5020904;28;20199;-87
2022/10/23 04:59:12;;;;;;;5.60;5.03;;;;;;;;;;5051163;28;20689;-87
2022/10/23 05:02:17;;;;;;;5.30;4.80;;;;;;;;;;5038950;28;20184;-87
2022/10/23 05:05:25;;;;;;;6.23;5.17;;;;;;;;;;5039628;28;20180;-87
2022/10/23 05:08:52;;;;;;;5.57;5.03;;;;;;;;;;5063644;28;20224;-87
2022/10/23 05:12:12;;;;;;;5.40;4.90;;;;;;;;;;5052004;28;20179;-87
2022/10/23 05:15:16;;;;;;;7.20;4.80;;;;;;;;;;5050024;28;20184;-87
2022/10/23 05:18:36;;;;;;;7.03;5.10;;;;;;;;;;5061272;28;20223;-87
2022/10/23 05:21:41;;;;;;;14.57;10.70;;;;;;;;;;5061518;28;20666;-87
2022/10/23 05:24:46;;;;;;;7.87;6.00;;;;;;;;;;5050581;28;20199;-87
2022/10/23 05:27:51;;;;;;;6.93;6.30;;;;;;;;;;5050566;28;20673;-87
2022/10/23 05:30:58;;;;;;;6.90;5.03;;;;;;;;;;5050539;28;20172;-87
2022/10/23 05:34:05;;;;;;;6.97;4.87;;;;;;;;;;5039095;28;20191;-87
2022/10/23 05:37:12;;;;;;;6.03;4.70;;;;;;;;;;5050320;28;20200;-87
2022/10/23 05:40:17;;;;;;;5.40;4.90;;;;;;;;;;5050505;28;20638;-87
2022/10/23 05:43:22;;;;;;;6.80;5.00;;;;;;;;;;5050331;28;20630;-87
2022/10/23 05:46:31;;;;;;;5.40;4.90;;;;;;;;;;5052504;28;20183;-87
2022/10/23 05:49:50;;;;;;;5.03;4.13;;;;;;;;;;5055453;28;20184;-87
2022/10/23 05:53:12;;;;;;;5.10;4.60;;;;;;;;;;5056296;28;20180;-86
2022/10/23 05:56:45;;;;;;;4.90;4.37;;;;;;;;;;5057150;28;20184;-86
2022/10/23 06:00:28;;;;;;;7.40;4.53;;;;;;;;;;5058849;28;20181;-87
2022/10/23 06:03:50;;;;;;;19.70;12.97;;;;;;;;;;5053454;28;20632;-88
2022/10/23 06:06:55;;;;;;;10.17;7.53;;;;;;;;;;5053049;28;20188;-88
2022/10/23 06:09:59;;;;;;;7.07;5.10;;;;;;;;;;5054486;28;20172;-88
2022/10/23 06:13:05;;;;;;;4.90;4.20;;;;;;;;;;5041539;28;20183;-87
2022/10/23 06:16:20;;;;;;;4.47;4.03;;;;;;;;;;5042567;28;20171;-88
2022/10/23 06:19:25;;;;;;;6.30;5.10;;;;;;;;;;5041414;28;20208;-88
2022/10/23 06:22:33;;;;;;;6.00;4.93;;;;;;;;;;5064150;28;20194;-88
2022/10/23 06:25:52;;;;;;;5.70;4.67;;;;;;;;;;5054678;28;20515;-88
2022/10/23 06:28:57;;;;;;;5.73;4.27;;;;;;;;;;5041387;28;20207;-88
2022/10/23 06:32:03;;;;;;;5.60;4.33;;;;;;;;;;5041675;28;20180;-88
2022/10/23 06:35:07;;;;;;;8.87;4.00;;;;;;;;;;5041625;28;20197;-88
2022/10/23 06:38:12;;;;;;;4.30;3.70;;;;;;;;;;5041328;28;20238;-88
2022/10/23 06:41:23;;;;;;;4.40;3.90;;;;;;;;;;5041916;28;20179;-88
2022/10/23 06:44:32;;;;;;;4.90;4.40;;;;;;;;;;5052513;28;20580;-87
2022/10/23 06:47:45;;;;;;;4.93;4.33;;;;;;;;;;5042023;28;20211;-87
2022/10/23 06:51:09;;;;;;;9.20;4.50;;;;;;;;;;5055220;28;20180;-87
2022/10/23 06:54:18;;;;;;;6.13;4.20;;;;;;;;;;5052877;28;20180;-87
2022/10/23 06:57:43;;;;;;;4.70;4.30;;;;;;;;;;5059460;28;20235;-87
2022/10/23 07:00:47;;;;;;;4.77;4.27;;;;;;;;;;5052130;28;20184;-87
2022/10/23 07:03:52;;;;;;;5.60;3.87;;;;;;;;;;5064516;28;20187;-87
2022/10/23 07:07:01;;;;;;;7.27;4.17;;;;;;;;;;5074826;28;20202;-87
2022/10/23 07:10:15;;;;;;;7.00;3.87;;;;;;;;;;5063692;28;20175;-87
2022/10/23 07:13:21;;;;;;;4.90;3.80;;;;;;;;;;5053112;28;20172;-86
2022/10/23 07:16:48;;;;;;;4.70;3.57;;;;;;;;;;5052834;28;20179;-87
2022/10/23 07:19:52;;;;;;;3.60;3.30;;;;;;;;;;5041457;28;20180;-86
2022/10/23 07:22:57;;;;;;;5.83;4.20;;;;;;;;;;5041497;28;20176;-86
2022/10/23 07:26:13;;;;;;;4.23;3.83;;;;;;;;;;5042640;28;20195;-87
2022/10/23 07:29:17;;;;;;;4.37;3.77;;;;;;;;;;5064613;28;20207;-87
2022/10/23 07:32:22;;;;;;;8.37;5.70;;;;;;;;;;5040714;28;20626;-87
2022/10/23 07:35:46;;;;;;;3.27;2.70;;;;;;;;;;5063608;28;20180;-87
2022/10/23 07:38:56;;;;;;;7.43;2.73;;;;;;;;;;5053149;28;20235;-87
2022/10/23 07:42:01;;;;;;;3.50;2.50;;;;;;;;;;5063223;28;20171;-87
2022/10/23 07:45:07;;;;;;;2.77;2.40;;;;;;;;;;5051948;28;20179;-86
2022/10/23 07:48:13;;;;;;;2.97;2.50;;;;;;;;;;5040934;28;20211;-87
2022/10/23 07:51:35;;;;;;;6.07;2.13;;;;;;;;;;5041952;28;20195;-86
2022/10/23 07:54:41;;;;;;;3.60;2.30;;;;;;;;;;5031413;28;20184;-87
2022/10/23 07:57:56;;;;;;;3.30;2.90;;;;;;;;;;5040937;28;20228;-87
2022/10/23 08:01:32;;;;;;;2.70;2.20;;;;;;;;;;5057945;28;20200;-88
2022/10/23 08:04:37;;;;;;;3.40;2.30;;;;;;;;;;5042414;28;20623;-87
2022/10/23 08:07:55;;;;;;;2.37;2.17;;;;;;;;;;5021208;28;20216;-87
2022/10/23 08:11:00;;;;;;;2.27;2.00;;;;;;;;;;5042350;28;20192;-87
2022/10/23 08:14:09;;;;;;;3.13;1.80;;;;;;;;;;5020356;28;20181;-87
2022/10/23 08:17:14;;;;;;;3.97;2.07;;;;;;;;;;5067070;28;20200;-87
2022/10/23 08:20:44;;;;;;;5.00;2.00;;;;;;;;;;5044023;28;20195;-88
2022/10/23 08:23:48;;;;;;;2.30;1.73;;;;;;;;;;5064712;28;20180;-88
2022/10/23 08:26:53;;;;;;;1.40;1.30;;;;;;;;;;5064903;28;20203;-87
2022/10/23 08:30:01;;;;;;;2.40;1.33;;;;;;;;;;5068735;28;20199;-88
2022/10/23 08:33:06;;;;;;;3.00;1.20;;;;;;;;;;5070120;28;20180;-88
2022/10/23 08:36:28;;;;;;;3.07;1.07;;;;;;;;;;5067716;28;20171;-88
2022/10/23 08:39:33;;;;;;;3.90;1.20;;;;;;;;;;5054930;28;20227;-88
2022/10/23 08:43:11;;;;;;;1.80;0.97;;;;;;;;;;5057280;28;20654;-88
2022/10/23 08:46:29;;;;;;;1.50;1.13;;;;;;;;;;5073472;28;20179;-88
2022/10/23 08:50:02;;;;;;;2.07;1.20;;;;;;;;;;5065947;28;20190;-86
2022/10/23 08:53:40;;;;;;;1.03;0.80;;;;;;;;;;5048781;28;20622;-86
2022/10/23 08:56:51;;;;;;;2.17;1.00;;;;;;;;;;5061414;28;20176;-86
2022/10/23 08:59:59;;;;;;;0.83;0.73;;;;;;;;;;5061320;28;20539;-86
2022/10/23 09:03:04;;;;;;;5.23;1.00;;;;;;;;;;5049797;28;20527;-86
2022/10/23 09:06:24;;;;;;;3.13;1.00;;;;;;;;;;5049451;28;20176;-86
2022/10/23 09:09:38;;;;;;;2.30;1.00;;;;;;;;;;5061678;28;20563;-86
2022/10/23 09:12:42;;;;;;;3.63;1.20;;;;;;;;;;5049918;28;20195;-87
2022/10/23 09:15:50;;;;;;;1.17;0.90;;;;;;;;;;5050749;28;20179;-87
2022/10/23 09:18:54;;;;;;;4.33;1.40;;;;;;;;;;5050296;28;20223;-87
2022/10/23 09:21:59;;;;;;;1.00;0.90;;;;;;;;;;5054417;28;20175;-88
2022/10/23 09:25:22;;;;;;;1.43;0.80;;;;;;;;;;5065281;28;20527;-88
2022/10/23 09:28:30;;;;;;;1.93;1.20;;;;;;;;;;5064860;28;20215;-88
2022/10/23 09:31:46;;;;;;;3.63;1.23;;;;;;;;;;5053321;28;20198;-88
2022/10/23 09:34:53;;;;;;;3.77;0.93;;;;;;;;;;5054337;28;20191;-88
2022/10/23 09:37:58;;;;;;;1.77;0.97;;;;;;;;;;5053506;28;20218;-88
2022/10/23 09:41:29;;;;;;;3.27;0.90;;;;;;;;;;5065366;28;20179;-87
2022/10/23 09:44:33;;;;;;;0.97;0.80;;;;;;;;;;5065503;28;20175;-86
2022/10/23 09:47:38;;;;;;;1.30;0.80;;;;;;;;;;5053242;28;20219;-86
2022/10/23 09:50:51;;;;;;;2.07;0.90;;;;;;;;;;5053185;28;20179;-86
2022/10/23 09:53:59;;;;;;;2.03;0.90;;;;;;;;;;5053755;28;20180;-83
2022/10/23 09:57:29;;;;;;;0.93;0.87;;;;;;;;;;5066750;28;20180;-83
2022/10/23 10:00:33;;;;;;;1.23;0.93;;;;;;;;;;5065275;28;20183;-83
2022/10/23 10:03:37;;;;;;;4.17;1.00;;;;;;;;;;5065389;28;20176;-83
2022/10/23 10:26:38;;;;;;;1.00;0.83;;;;;;;;;;5076446;28;20623;-89
2022/10/23 10:29:57;;;;;;;5.83;0.90;;;;;;;;;;5052185;28;20207;-89
2022/10/23 10:33:16;;;;;;;3.93;1.00;;;;;;;;;;5051829;28;20184;-89
2022/10/23 10:36:39;;;;;;;2.70;0.90;;;;;;;;;;5063600;28;20179;-87
2022/10/23 10:39:54;;;;;;;2.60;0.90;;;;;;;;;;5054509;28;20678;-86
2022/10/23 10:43:31;;;;;;;3.53;0.80;;;;;;;;;;5052569;28;20180;-86
2022/10/23 10:46:50;;;;;;;0.87;0.73;;;;;;;;;;5052511;28;20627;-88
2022/10/23 10:50:07;;;;;;;1.23;0.93;;;;;;;;;;5052151;28;20172;-88
2022/10/23 10:53:46;;;;;;;1.00;0.90;;;;;;;;;;5052864;28;20184;-88
2022/10/23 10:56:50;;;;;;;1.40;1.10;;;;;;;;;;5052320;28;20515;-88
2022/10/23 10:59:58;;;;;;;1.63;0.90;;;;;;;;;;5052078;28;20199;-88
2022/10/23 11:03:15;;;;;;;2.53;0.80;;;;;;;;;;5063568;28;20184;-87
2022/10/23 11:06:25;;;;;;;3.30;0.90;;;;;;;;;;5054972;28;20188;-89
2022/10/23 11:09:30;;;;;;;1.60;1.17;;;;;;;;;;5064186;28;20223;-87
2022/10/23 11:12:37;;;;;;;1.30;1.10;;;;;;;;;;5052420;28;20175;-87
2022/10/23 11:15:43;;;;;;;2.97;0.80;;;;;;;;;;5051972;28;20179;-91
2022/10/23 11:19:07;;;;;;;1.60;1.30;;;;;;;;;;5062806;28;20223;-88
2022/10/23 11:22:22;;;;;;;2.07;1.10;;;;;;;;;;5083019;22;20241;-87
2022/10/23 11:25:59;;;;;;;4.13;0.73;;;;;;;;;;5036674;28;20188;-87
2022/10/23 11:29:09;;;;;;;2.17;1.07;;;;;;;;;;5054432;28;20180;-87
2022/10/23 11:32:13;;;;;;;2.00;1.00;;;;;;;;;;5053576;28;20215;-87
2022/10/23 11:35:36;;;;;;;3.93;1.03;;;;;;;;;;5061641;28;20183;-87
2022/10/23 11:38:45;;;;;;;6.67;1.17;;;;;;;;;;5057751;28;20219;-87
2022/10/23 11:41:56;;;;;;;2.50;1.10;;;;;;;;;;5060103;28;20211;-87
2022/10/23 11:45:00;;;;;;;3.70;0.90;;;;;;;;;;5070953;28;20184;-87
2022/10/23 11:48:18;;;;;;;1.73;1.10;;;;;;;;;;5070372;28;20175;-87
2022/10/23 11:51:33;;;;;;;1.10;0.90;;;;;;;;;;5069673;28;20223;-87
2022/10/23 11:54:37;;;;;;;1.63;0.80;;;;;;;;;;5068904;28;20184;-87
2022/10/23 11:57:44;;;;;;;1.23;0.83;;;;;;;;;;5056377;28;20207;-87
2022/10/23 12:01:00;;;;;;;4.93;0.90;;;;;;;;;;5079322;28;20184;-87
2022/10/23 12:04:13;;;;;;;0.90;0.80;;;;;;;;;;5067080;28;20180;-87
2022/10/23 12:07:28;;;;;;;2.73;0.80;;;;;;;;;;5055366;28;20183;-87
2022/10/23 12:10:34;;;;;;;1.67;0.90;;;;;;;;;;5054768;28;20179;-87
2022/10/23 12:13:38;;;;;;;2.87;0.70;;;;;;;;;;5065869;28;20183;-87
2022/10/23 12:16:43;;;;;;;1.53;0.80;;;;;;;;;;5064917;28;20184;-87
2022/10/23 12:19:50;;;;;;;3.93;1.10;;;;;;;;;;5054038;28;20203;-87
2022/10/23 12:23:26;;;;;;;4.27;0.80;;;;;;;;;;5076080;28;20222;-87
2022/10/23 12:26:56;;;;;;;1.60;0.90;;;;;;;;;;5053545;28;20176;-87
2022/10/23 12:30:13;;;;;;;0.90;0.70;;;;;;;;;;5064618;28;20614;-87
2022/10/23 12:33:43;;;;;;;2.10;0.90;;;;;;;;;;5052214;28;20215;-87
2022/10/23 12:36:53;;;;;;;1.43;0.87;;;;;;;;;;5041370;28;20207;-87
2022/10/23 12:40:00;;;;;;;1.57;0.80;;;;;;;;;;5064403;28;20211;-86
2022/10/23 12:43:22;;;;;;;3.13;0.90;;;;;;;;;;5052794;28;20215;-87
2022/10/23 12:46:42;;;;;;;2.33;0.90;;;;;;;;;;5064457;28;20223;-86
2022/10/23 12:49:48;;;;;;;1.40;0.70;;;;;;;;;;5064221;28;20180;-86
2022/10/23 12:53:02;;;;;;;1.13;0.70;;;;;;;;;;5063946;28;20215;-87
2022/10/23 12:56:11;;;;;;;1.73;0.70;;;;;;;;;;5063057;28;20183;-87
2022/10/23 12:59:17;;;;;;;1.13;0.90;;;;;;;;;;5063316;28;20291;-86
2022/10/23 13:02:28;;;;;;;2.17;0.80;;;;;;;;;;5063387;28;20218;-87
2022/10/23 13:05:32;;;;;;;6.13;1.00;;;;;;;;;;5074009;28;20184;-87
2022/10/23 13:08:42;;;;;;;0.90;0.83;;;;;;;;;;5051742;28;20195;-87
2022/10/23 13:12:26;;;;;;;1.67;0.80;;;;;;;;;;5054830;28;20215;-86
2022/10/23 13:15:41;;;;;;;2.50;0.90;;;;;;;;;;5051674;28;20179;-86
2022/10/23 13:18:46;;;;;;;3.13;1.00;;;;;;;;;;5062513;28;20180;-87
2022/10/23 13:21:50;;;;;;;1.43;0.90;;;;;;;;;;5062134;28;20561;-86
2022/10/23 13:24:54;;;;;;;1.23;0.87;;;;;;;;;;5061956;28;20195;-86
2022/10/23 13:28:30;;;;;;;5.33;1.20;;;;;;;;;;5062528;28;20183;-86
2022/10/23 13:31:36;;;;;;;1.60;1.00;;;;;;;;;;5050840;28;20689;-87
2022/10/23 13:34:50;;;;;;;2.17;1.00;;;;;;;;;;5039267;28;20183;-87
2022/10/23 13:37:54;;;;;;;3.07;1.20;;;;;;;;;;5061959;28;20191;-87
2022/10/23 13:41:00;;;;;;;1.83;1.10;;;;;;;;;;5062310;28;20538;-86
2022/10/23 13:44:04;;;;;;;3.37;1.30;;;;;;;;;;5061906;28;20175;-86
2022/10/23 13:47:12;;;;;;;3.63;1.07;;;;;;;;;;5062536;28;20650;-86
2022/10/23 13:50:17;;;;;;;1.53;1.20;;;;;;;;;;5061930;28;20196;-87
2022/10/23 13:53:21;;;;;;;1.47;1.20;;;;;;;;;;5061953;28;20191;-86
2022/10/23 13:56:26;;;;;;;1.40;1.20;;;;;;;;;;5039385;28;20200;-86
2022/10/23 13:59:30;;;;;;;4.93;1.50;;;;;;;;;;5061750;28;20215;-86
2022/10/23 14:02:34;;;;;;;1.60;1.30;;;;;;;;;;5039513;28;20215;-86
2022/10/23 14:05:38;;;;;;;1.43;1.17;;;;;;;;;;5061791;28;20184;-86
2022/10/23 14:08:42;;;;;;;1.33;1.00;;;;;;;;;;5054415;28;20183;-87
2022/10/23 14:11:46;;;;;;;4.07;1.13;;;;;;;;;;5076741;28;20211;-87
2022/10/23 14:14:51;;;;;;;3.53;1.13;;;;;;;;;;5065249;28;20515;-86
2022/10/23 14:17:55;;;;;;;2.43;1.30;;;;;;;;;;5077358;28;20599;-87
2022/10/23 14:21:04;;;;;;;5.93;1.57;;;;;;;;;;5054042;28;20227;-87
2022/10/23 14:24:08;;;;;;;2.03;1.30;;;;;;;;;;5065250;28;20183;-87
2022/10/23 14:27:12;;;;;;;2.50;2.30;;;;;;;;;;5065118;28;20184;-87
2022/10/23 14:30:16;;;;;;;3.57;1.40;;;;;;;;;;5065083;28;20171;-87
2022/10/23 14:33:20;;;;;;;2.53;1.23;;;;;;;;;;5053847;28;20175;-86
2022/10/23 14:36:25;;;;;;;1.47;1.23;;;;;;;;;;5064901;28;20184;-86
2022/10/23 14:39:29;;;;;;;2.33;1.30;;;;;;;;;;5064925;28;20555;-87
2022/10/23 14:42:33;;;;;;;7.50;1.90;;;;;;;;;;5053497;28;20670;-86
2022/10/23 14:45:37;;;;;;;1.80;1.53;;;;;;;;;;5053265;28;20175;-87
2022/10/23 14:48:42;;;;;;;1.40;1.30;;;;;;;;;;5064414;28;20179;-86
2022/10/23 14:51:46;;;;;;;6.07;1.47;;;;;;;;;;5053048;28;20203;-87
2022/10/23 14:54:52;;;;;;;1.50;1.20;;;;;;;;;;5053220;28;20622;-87
2022/10/23 14:57:56;;;;;;;2.43;1.40;;;;;;;;;;5064472;28;20180;-86
2022/10/23 15:01:00;;;;;;;2.33;1.73;;;;;;;;;;5041337;28;20211;-87
2022/10/23 15:04:04;;;;;;;1.43;1.30;;;;;;;;;;5064516;28;20171;-86
2022/10/23 15:07:09;;;;;;;2.63;1.53;;;;;;;;;;5064158;28;20180;-87
2022/10/23 15:10:13;;;;;;;5.47;1.50;;;;;;;;;;5052527;28;20191;-86
2022/10/23 15:13:17;;;;;;;4.63;1.43;;;;;;;;;;5063706;28;20219;-86
2022/10/23 15:16:22;;;;;;;3.23;1.70;;;;;;;;;;5064029;28;20203;-87
2022/10/23 15:19:26;;;;;;;1.80;1.50;;;;;;;;;;5063387;28;20179;-87
2022/10/23 15:22:30;;;;;;;1.97;1.50;;;;;;;;;;5063493;28;20218;-87
2022/10/23 15:25:34;;;;;;;1.73;1.63;;;;;;;;;;5063983;28;20630;-87
2022/10/23 15:28:39;;;;;;;4.67;1.60;;;;;;;;;;5063432;28;20191;-87
2022/10/23 15:31:46;;;;;;;3.73;1.77;;;;;;;;;;5040588;28;20211;-86
2022/10/23 15:34:52;;;;;;;6.70;1.97;;;;;;;;;;5063652;28;20653;-87
2022/10/23 15:37:56;;;;;;;7.30;1.87;;;;;;;;;;5063521;28;20622;-87
2022/10/23 15:41:14;;;;;;;4.47;1.90;;;;;;;;;;5052093;28;20199;-87
2022/10/23 15:44:21;;;;;;;4.43;1.97;;;;;;;;;;5075640;28;20527;-87
2022/10/23 15:47:24;;;;;;;7.83;1.90;;;;;;;;;;5063242;28;20179;-87
2022/10/23 15:50:28;;;;;;;6.63;2.20;;;;;;;;;;5051752;28;20175;-87
2022/10/23 15:53:32;;;;;;;4.37;1.80;;;;;;;;;;5051858;28;20175;-87
2022/10/23 15:56:37;;;;;;;2.37;2.00;;;;;;;;;;5063523;28;20175;-87
2022/10/23 15:59:41;;;;;;;3.33;2.20;;;;;;;;;;5051109;28;20191;-87
2022/10/23 16:02:45;;;;;;;4.80;1.90;;;;;;;;;;5051654;28;20219;-87
2022/10/23 16:05:49;;;;;;;2.87;1.80;;;;;;;;;;5062712;28;20199;-86
2022/10/23 16:08:53;;;;;;;5.27;1.60;;;;;;;;;;5051783;28;20180;-87
2022/10/23 16:11:57;;;;;;;3.07;1.73;;;;;;;;;;5062734;28;20202;-87
2022/10/23 16:15:01;;;;;;;5.20;1.60;;;;;;;;;;5063109;28;20187;-86
2022/10/23 16:18:07;;;;;;;7.87;2.00;;;;;;;;;;5051243;28;20179;-86
2022/10/23 16:21:26;;;;;;;4.30;2.07;;;;;;;;;;5062433;28;20207;-87
2022/10/23 16:24:31;;;;;;;4.30;1.70;;;;;;;;;;5063280;28;20184;-86
2022/10/23 16:27:35;;;;;;;5.57;2.43;;;;;;;;;;5051149;28;20199;-87
2022/10/23 16:30:41;;;;;;;5.83;3.10;;;;;;;;;;5061754;28;20623;-87
2022/10/23 16:33:45;;;;;;;5.70;3.47;;;;;;;;;;5051159;28;20179;-87
2022/10/23 16:36:49;;;;;;;4.53;2.63;;;;;;;;;;5051228;28;20176;-86
2022/10/23 16:40:04;;;;;;;3.93;2.40;;;;;;;;;;5052294;28;20212;-87
2022/10/23 16:43:27;;;;;;;6.17;2.50;;;;;;;;;;5062023;28;20619;-87
2022/10/23 16:46:40;;;;;;;9.17;2.37;;;;;;;;;;5063342;28;20191;-86
2022/10/23 16:49:44;;;;;;;5.60;2.47;;;;;;;;;;5062336;28;20175;-86
2022/10/23 16:52:48;;;;;;;4.27;2.33;;;;;;;;;;5057514;28;20237;-86
2022/10/23 16:55:52;;;;;;;4.73;2.30;;;;;;;;;;5063139;28;20179;-87
2022/10/23 16:58:58;;;;;;;2.87;1.80;;;;;;;;;;5051625;28;20175;-87
2022/10/23 17:02:02;;;;;;;5.03;2.53;;;;;;;;;;5050314;28;20227;-87
2022/10/23 17:05:06;;;;;;;3.27;2.43;;;;;;;;;;5062235;28;20198;-86
2022/10/23 17:08:11;;;;;;;5.53;2.33;;;;;;;;;;5051650;28;20183;-90
2022/10/23 17:11:16;;;;;;;5.63;2.73;;;;;;;;;;5050525;28;20211;-87
2022/10/23 17:14:23;;;;;;;3.13;2.53;;;;;;;;;;5050663;28;20187;-87
2022/10/23 17:17:27;;;;;;;4.93;3.27;;;;;;;;;;5061468;28;20660;-88
2022/10/23 17:20:31;;;;;;;6.67;2.97;;;;;;;;;;5049520;28;20199;-88
2022/10/23 17:23:36;;;;;;;7.00;3.07;;;;;;;;;;5073155;28;20179;-87
2022/10/23 17:26:41;;;;;;;6.53;3.40;;;;;;;;;;5050464;28;20519;-87
2022/10/23 17:29:45;;;;;;;4.80;3.07;;;;;;;;;;5050560;28;20176;-87
2022/10/23 17:32:49;;;;;;;4.57;2.87;;;;;;;;;;5045444;28;20223;-87
2022/10/23 17:35:54;;;;;;;5.90;2.93;;;;;;;;;;5041831;28;20180;-87
2022/10/23 17:38:58;;;;;;;2.97;2.60;;;;;;;;;;5042459;28;20180;-87
2022/10/23 17:42:02;;;;;;;6.47;3.00;;;;;;;;;;5045025;28;20232;-87
2022/10/23 17:45:07;;;;;;;3.83;2.30;;;;;;;;;;5034644;28;20623;-87
2022/10/23 17:48:12;;;;;;;7.20;2.80;;;;;;;;;;5023570;28;20523;-88
2022/10/23 17:51:22;;;;;;;6.83;2.20;;;;;;;;;;5034416;28;20220;-87
2022/10/23 17:54:26;;;;;;;3.27;2.33;;;;;;;;;;5022959;28;20180;-87
2022/10/23 17:57:30;;;;;;;5.53;2.10;;;;;;;;;;5034434;28;20200;-87
2022/10/23 18:00:35;;;;;;;6.23;1.90;;;;;;;;;;5023313;28;20535;-87
2022/10/23 18:03:40;;;;;;;5.77;2.20;;;;;;;;;;5053963;28;20188;-87
2022/10/23 18:06:51;;;;;;;4.17;2.10;;;;;;;;;;5066401;28;20175;-88
2022/10/23 18:09:55;;;;;;;5.03;2.20;;;;;;;;;;5065621;28;20535;-88
2022/10/23 18:12:59;;;;;;;5.67;2.03;;;;;;;;;;5055782;28;20570;-87
2022/10/23 18:16:06;;;;;;;6.13;3.67;;;;;;;;;;5072404;28;20199;-87
2022/10/23 18:19:10;;;;;;;3.60;2.67;;;;;;;;;;5054142;28;20180;-87
2022/10/23 18:22:14;;;;;;;4.53;2.50;;;;;;;;;;5065186;28;20230;-87
2022/10/23 18:25:19;;;;;;;5.60;2.20;;;;;;;;;;5045411;28;20658;-88
2022/10/23 18:28:23;;;;;;;2.57;1.90;;;;;;;;;;5053543;28;20191;-87
2022/10/23 18:31:29;;;;;;;2.47;2.00;;;;;;;;;;5064583;28;20215;-87
2022/10/23 18:34:33;;;;;;;5.47;1.80;;;;;;;;;;5041447;28;20179;-87
2022/10/23 18:37:37;;;;;;;4.37;1.83;;;;;;;;;;5053696;28;20179;-87
2022/10/23 18:40:42;;;;;;;4.23;2.00;;;;;;;;;;5041328;28;20207;-87
2022/10/23 18:43:46;;;;;;;3.77;2.20;;;;;;;;;;5069318;28;20654;-87
2022/10/23 18:46:51;;;;;;;2.97;2.03;;;;;;;;;;5069408;28;20179;-87
2022/10/23 18:49:55;;;;;;;3.27;1.67;;;;;;;;;;5045883;28;20180;-87
2022/10/23 18:52:59;;;;;;;7.67;2.13;;;;;;;;;;5044364;28;20207;-87
2022/10/23 18:56:06;;;;;;;2.57;1.97;;;;;;;;;;5045449;28;20176;-87
2022/10/23 18:59:13;;;;;;;6.07;2.10;;;;;;;;;;5073317;28;20176;-87
2022/10/23 19:02:18;;;;;;;2.63;2.30;;;;;;;;;;5060732;28;20570;-88
2022/10/23 19:05:22;;;;;;;2.30;1.60;;;;;;;;;;5073020;28;20175;-87
2022/10/23 19:08:27;;;;;;;4.03;2.33;;;;;;;;;;5060966;28;20175;-87
2022/10/23 19:11:32;;;;;;;7.87;2.60;;;;;;;;;;5059880;28;20210;-87
2022/10/23 19:14:36;;;;;;;7.37;2.33;;;;;;;;;;5070705;28;20179;-87
2022/10/23 19:17:40;;;;;;;5.73;2.73;;;;;;;;;;5041742;28;20212;-87